This is the latest recevied weather packets stored in our database for station/object CA2JAT-13. If no packets are shown the sender has not sent any weather packets the latest 10 day(s).
| Time | Temp. | Humidity | Pressure | Rain* | Wind** | Luminosity | Snow |
|---|---|---|---|---|---|---|---|
| 1788263218 | 19.44° C | 14% | 1018.6 hPa | 0 mm | - | 50 W/m² | - |
| 1788261416 | 18.89° C | 17% | 1019 hPa | 0 mm | - | 0 W/m² | - |
| 1788259613 | 18.33° C | 19% | 1019.6 hPa | 0 mm | - | 0 W/m² | - |
| 1788257811 | 12.78° C | 52% | 1021.4 hPa | 0 mm | - | 0 W/m² | - |
| 1788256008 | 11.67° C | 66% | 1022 hPa | 0 mm | - | 0 W/m² | - |
| 1788254206 | 10° C | 85% | 1022.9 hPa | 0 mm | - | 0 W/m² | - |
| 1788252403 | 8.33° C | 99% | 1023.4 hPa | 0 mm | - | 0 W/m² | - |
| 1788250601 | 8.89° C | 99% | 1023.6 hPa | 0 mm | - | 0 W/m² | - |
| 1788248798 | 7.22° C | 99% | 1024.7 hPa | 0 mm | - | 0 W/m² | - |
| 1788246996 | 7.22° C | 99% | 1024.8 hPa | 0 mm | - | 0 W/m² | - |
| 1788245194 | 7.78° C | 99% | 1025.5 hPa | 0 mm | - | 0 W/m² | - |
| 1788243391 | 8.33° C | 99% | 1025.5 hPa | 0 mm | - | 0 W/m² | - |
| 1788241588 | 8.33° C | 98% | 1025.8 hPa | 0 mm | - | 0 W/m² | - |
| 1788239786 | 8.89° C | 98% | 1025.8 hPa | 0 mm | - | 0 W/m² | - |
| 1788237983 | 8.89° C | 99% | 1025 hPa | 0 mm | - | 0 W/m² | - |
| 1788236181 | 8.89° C | 99% | 1024.6 hPa | 0 mm | - | 0 W/m² | - |
| 1788221712 | 12.78° C | 71% | 1023.6 hPa | 0 mm | - | 0 W/m² | - |
| 1788218108 | 14.44° C | 62% | 1022.7 hPa | 0 mm | - | 0 W/m² | - |
| 1788214503 | 16.67° C | 53% | 1021.4 hPa | 0 mm | - | 17 W/m² | - |
| 1788210898 | 19.44° C | 47% | 1019.7 hPa | 0 mm | - | 257 W/m² | - |
| 1788207293 | 22.22° C | 37% | 1018.1 hPa | 0 mm | - | 521 W/m² | - |
| 1788205491 | 23.89° C | 29% | 1017.6 hPa | 0 mm | - | 607 W/m² | - |
| 1788203688 | 23.89° C | 27% | 1017.7 hPa | 0 mm | - | 644 W/m² | - |
| 1788201885 | 24.44° C | 33% | 1018.1 hPa | 0 mm | - | 706 W/m² | - |
| 1788200083 | 23.89° C | 25% | 1019.2 hPa | 0 mm | - | 780 W/m² | - |
* Rain latest hour (hover to see other rain measurements)
** Current wind speed in m/s (hover to see current wind gust speed)